Time;durP1;ratioP1;P1;durP2;ratioP2;P2;SDS_P1;SDS_P2;PMS_P1;PMS_P2;Temp;Humidity;BMP_temperature;BMP_pressure;BME280_temperature;BME280_humidity;BME280_pressure;Samples;Min_cycle;Max_cycle;Signal;HPM_P1;HPM_P2
2021/05/04 00:01:18;;;;;;;2.47;2.00;;;16.00;50.50;;;;;;4731907;30;20048;-87
2021/05/04 00:03:43;;;;;;;1.98;1.65;;;15.90;50.40;;;;;;4755804;30;20043;-87
2021/05/04 00:06:09;;;;;;;2.20;1.85;;;15.90;50.50;;;;;;4736234;30;20032;-87
2021/05/04 00:08:35;;;;;;;1.70;1.60;;;15.90;50.50;;;;;;4750876;30;20064;-86
2021/05/04 00:11:01;;;;;;;2.72;1.70;;;15.90;50.50;;;;;;4721344;30;20063;-87
2021/05/04 00:13:27;;;;;;;2.05;1.75;;;15.90;50.50;;;;;;4757838;30;20052;-87
2021/05/04 00:15:53;;;;;;;2.00;1.80;;;15.90;50.50;;;;;;4728456;30;20037;-88
2021/05/04 00:18:19;;;;;;;1.83;1.55;;;15.90;50.50;;;;;;4753370;30;20036;-86
2021/05/04 00:20:44;;;;;;;3.05;2.15;;;15.90;50.50;;;;;;4733263;30;20426;-86
2021/05/04 00:23:10;;;;;;;1.95;1.60;;;15.90;50.60;;;;;;4715766;30;20116;-86
2021/05/04 00:25:36;;;;;;;2.25;1.70;;;15.80;50.50;;;;;;4735931;30;20163;-86
2021/05/04 00:28:03;;;;;;;1.88;1.58;;;15.90;50.60;;;;;;4736009;30;20029;-86
2021/05/04 00:30:29;;;;;;;2.03;1.50;;;15.80;50.50;;;;;;4740605;30;20031;-86
2021/05/04 00:32:55;;;;;;;2.00;1.50;;;15.80;50.50;;;;;;4733583;30;20045;-86
2021/05/04 00:35:20;;;;;;;1.75;1.52;;;15.80;50.60;;;;;;4729008;30;20043;-85
2021/05/04 00:37:46;;;;;;;1.77;1.33;;;15.80;50.60;;;;;;4744447;30;20045;-86
2021/05/04 00:40:13;;;;;;;1.45;1.30;;;15.80;50.60;;;;;;4747450;30;20065;-85
2021/05/04 00:42:39;;;;;;;2.30;1.50;;;15.80;50.60;;;;;;4727270;30;20056;-87
2021/05/04 00:45:06;;;;;;;1.40;1.30;;;15.80;50.60;;;;;;4735921;30;20056;-85
2021/05/04 00:47:32;;;;;;;2.17;1.60;;;15.80;50.60;;;;;;4738590;30;20072;-86
2021/05/04 00:49:58;;;;;;;1.40;1.30;;;15.80;50.70;;;;;;4738027;30;20035;-86
2021/05/04 00:52:24;;;;;;;1.75;1.48;;;15.80;50.60;;;;;;4735881;30;20397;-87
2021/05/04 00:54:52;;;;;;;2.25;1.48;;;15.80;50.70;;;;;;4743513;30;20197;-87
2021/05/04 00:57:18;;;;;;;1.63;1.40;;;15.80;50.70;;;;;;4762014;30;20032;-87
2021/05/04 00:59:44;;;;;;;1.73;1.40;;;15.70;50.70;;;;;;4755731;30;20052;-87
2021/05/04 01:02:11;;;;;;;1.60;1.48;;;15.70;50.70;;;;;;4736109;30;20048;-88
2021/05/04 01:04:39;;;;;;;1.50;1.40;;;15.70;50.70;;;;;;4738635;30;20036;-87
2021/05/04 01:07:05;;;;;;;2.08;1.48;;;15.70;50.80;;;;;;4743868;30;20033;-87
2021/05/04 01:09:31;;;;;;;1.60;1.40;;;15.70;50.80;;;;;;4759510;30;20036;-87
2021/05/04 01:11:57;;;;;;;1.88;1.50;;;15.70;50.80;;;;;;4733435;30;20450;-87
2021/05/04 01:14:23;;;;;;;3.47;1.60;;;15.70;50.80;;;;;;4720480;30;20048;-88
2021/05/04 01:16:49;;;;;;;1.33;1.23;;;15.70;50.90;;;;;;4735205;30;20032;-87
2021/05/04 01:19:16;;;;;;;1.77;1.30;;;15.60;50.80;;;;;;4743775;30;20463;-87
2021/05/04 01:21:43;;;;;;;1.40;1.30;;;15.60;50.80;;;;;;4743744;30;20120;-89
2021/05/04 01:24:10;;;;;;;1.30;1.20;;;15.60;50.90;;;;;;4718509;30;20037;-87
2021/05/04 01:26:36;;;;;;;1.10;1.02;;;15.60;50.90;;;;;;4720721;30;20056;-88
2021/05/04 01:29:03;;;;;;;3.05;1.50;;;15.60;51.00;;;;;;4716148;30;20048;-89
2021/05/04 01:31:29;;;;;;;1.33;1.23;;;15.60;51.00;;;;;;4752975;30;20041;-88
2021/05/04 01:33:55;;;;;;;2.58;1.40;;;15.50;51.00;;;;;;4724985;30;20501;-90
2021/05/04 01:36:21;;;;;;;1.80;1.30;;;15.50;51.00;;;;;;4737714;30;20049;-88
2021/05/04 01:38:46;;;;;;;1.20;1.10;;;15.50;51.10;;;;;;4725164;30;20041;-86
2021/05/04 01:41:12;;;;;;;1.38;1.20;;;15.50;51.20;;;;;;4723175;30;20390;-87
2021/05/04 01:43:38;;;;;;;1.25;1.15;;;15.50;51.20;;;;;;4735070;30;20029;-88
2021/05/04 01:46:04;;;;;;;1.58;1.30;;;15.50;51.20;;;;;;4732220;30;20045;-87
2021/05/04 01:48:29;;;;;;;1.15;1.10;;;15.40;51.20;;;;;;4739774;30;20092;-87
2021/05/04 01:50:55;;;;;;;1.30;1.20;;;15.40;51.20;;;;;;4751861;30;20502;-88
2021/05/04 01:53:21;;;;;;;2.85;1.20;;;15.40;51.30;;;;;;4735156;30;20041;-87
2021/05/04 01:55:47;;;;;;;1.65;1.30;;;15.30;51.30;;;;;;4735952;30;20037;-88
2021/05/04 01:58:13;;;;;;;2.05;1.40;;;15.30;51.30;;;;;;4720733;30;20041;-86
2021/05/04 02:00:39;;;;;;;1.63;1.38;;;15.30;51.30;;;;;;4757561;30;20060;-86
2021/05/04 02:03:05;;;;;;;1.25;1.15;;;15.30;51.40;;;;;;4739437;30;20082;-85
2021/05/04 02:05:31;;;;;;;1.20;1.10;;;15.30;51.40;;;;;;4711241;30;20067;-86
2021/05/04 02:07:56;;;;;;;1.10;1.10;;;15.30;51.50;;;;;;4720450;30;20481;-85
2021/05/04 02:10:22;;;;;;;1.33;1.17;;;15.20;51.50;;;;;;4730020;30;20032;-87
2021/05/04 02:12:48;;;;;;;1.65;1.20;;;15.20;51.50;;;;;;4712779;30;20113;-87
2021/05/04 02:15:14;;;;;;;1.80;1.20;;;15.20;51.50;;;;;;4731657;30;20028;-85
2021/05/04 02:17:40;;;;;;;2.50;1.40;;;15.20;51.60;;;;;;4734381;30;20040;-86
2021/05/04 02:20:07;;;;;;;1.13;1.02;;;15.20;51.60;;;;;;4705506;30;20478;-84
2021/05/04 02:22:33;;;;;;;1.30;1.20;;;15.10;51.70;;;;;;4754049;30;20033;-86
2021/05/04 02:25:00;;;;;;;1.58;1.45;;;15.10;51.70;;;;;;4732563;30;20052;-88
2021/05/04 02:27:26;;;;;;;2.47;1.70;;;15.10;51.80;;;;;;4743479;30;20040;-88
2021/05/04 02:29:52;;;;;;;2.63;1.40;;;15.10;51.80;;;;;;4739098;30;20029;-86
2021/05/04 02:32:18;;;;;;;2.25;1.20;;;15.10;51.90;;;;;;4722448;30;20102;-85
2021/05/04 02:34:43;;;;;;;1.40;1.30;;;15.00;51.80;;;;;;4734224;30;20051;-87
2021/05/04 02:37:09;;;;;;;1.98;1.30;;;15.00;51.90;;;;;;4751049;30;20040;-87
2021/05/04 02:39:35;;;;;;;1.30;1.17;;;15.00;52.00;;;;;;4734904;30;20040;-86
2021/05/04 02:42:01;;;;;;;1.30;1.20;;;15.00;52.00;;;;;;4748831;30;20037;-86
2021/05/04 02:44:27;;;;;;;1.48;1.30;;;14.90;52.00;;;;;;4721523;30;20097;-86
2021/05/04 02:46:53;;;;;;;1.42;1.25;;;14.90;52.10;;;;;;4733807;30;20108;-87
2021/05/04 02:49:19;;;;;;;1.25;1.15;;;14.90;52.10;;;;;;4734196;30;20080;-87
2021/05/04 02:51:45;;;;;;;1.58;1.35;;;14.90;52.10;;;;;;4750118;30;20033;-86
2021/05/04 02:54:10;;;;;;;1.83;1.23;;;14.80;52.20;;;;;;4729089;30;20149;-85
2021/05/04 02:56:39;;;;;;;1.42;1.10;;;14.80;52.20;;;;;;4732392;30;20032;-88
2021/05/04 02:59:04;;;;;;;1.13;1.10;;;14.80;52.20;;;;;;4719581;30;20032;-88
2021/05/04 03:01:30;;;;;;;1.35;1.10;;;14.80;52.20;;;;;;4725311;30;20097;-87
2021/05/04 03:03:56;;;;;;;1.33;1.20;;;14.70;52.20;;;;;;4730481;30;20048;-86
2021/05/04 03:06:22;;;;;;;1.35;1.15;;;14.70;52.30;;;;;;4730878;30;20065;-86
2021/05/04 03:08:47;;;;;;;1.20;1.10;;;14.70;52.30;;;;;;4751092;30;20064;-84
2021/05/04 03:11:13;;;;;;;2.60;1.35;;;14.70;52.40;;;;;;4733971;30;20095;-87
2021/05/04 03:13:39;;;;;;;1.58;1.00;;;14.70;52.40;;;;;;4733565;30;20400;-87
2021/05/04 03:16:05;;;;;;;1.73;1.10;;;14.60;52.40;;;;;;4720023;30;20055;-88
2021/05/04 03:18:31;;;;;;;1.30;1.20;;;14.60;52.50;;;;;;4754512;30;20040;-86
2021/05/04 03:20:57;;;;;;;1.58;1.20;;;14.60;52.50;;;;;;4738198;30;20025;-87
2021/05/04 03:23:23;;;;;;;1.10;1.10;;;14.60;52.60;;;;;;4726814;30;20552;-88
2021/05/04 03:25:50;;;;;;;1.50;1.30;;;14.50;52.80;;;;;;4734158;30;20044;-86
2021/05/04 03:28:17;;;;;;;1.00;1.00;;;14.50;52.60;;;;;;4729445;30;20039;-86
2021/05/04 03:30:43;;;;;;;1.20;1.10;;;14.50;52.70;;;;;;4753439;30;20028;-87
2021/05/04 03:33:09;;;;;;;1.40;1.13;;;14.50;52.70;;;;;;4739125;30;20498;-87
2021/05/04 03:35:35;;;;;;;1.25;1.15;;;14.50;52.80;;;;;;4734265;30;20044;-87
2021/05/04 03:38:02;;;;;;;1.10;1.00;;;14.50;52.80;;;;;;4724509;30;20040;-86
2021/05/04 03:40:28;;;;;;;1.40;1.27;;;14.40;52.80;;;;;;4743510;30;20091;-88
2021/05/04 03:42:54;;;;;;;1.17;1.08;;;14.40;52.80;;;;;;4730906;30;20048;-87
2021/05/04 03:45:20;;;;;;;2.25;1.33;;;14.40;52.90;;;;;;4734049;30;20107;-87
2021/05/04 03:47:46;;;;;;;1.45;1.10;;;14.30;52.90;;;;;;4721593;30;20049;-87
2021/05/04 03:50:15;;;;;;;1.95;1.40;;;14.30;52.90;;;;;;4726853;30;20517;-87
2021/05/04 03:52:41;;;;;;;1.02;1.02;;;14.30;53.00;;;;;;4754457;30;20036;-87
2021/05/04 03:55:08;;;;;;;1.20;1.10;;;14.30;53.00;;;;;;4739750;30;20366;-87
2021/05/04 03:57:34;;;;;;;1.20;1.10;;;14.30;53.10;;;;;;4742702;30;20063;-88
2021/05/04 04:00:00;;;;;;;1.27;1.17;;;14.30;53.10;;;;;;4722458;30;20041;-87
2021/05/04 04:02:26;;;;;;;1.58;1.10;;;14.20;53.10;;;;;;4736449;30;20114;-87
2021/05/04 04:04:52;;;;;;;1.55;1.25;;;14.20;53.20;;;;;;4739091;30;20033;-85
2021/05/04 04:07:17;;;;;;;1.27;1.08;;;14.20;53.20;;;;;;4739018;30;20024;-86
2021/05/04 04:09:43;;;;;;;1.00;1.00;;;14.20;53.20;;;;;;4751854;30;20044;-85
2021/05/04 04:12:09;;;;;;;1.40;1.20;;;14.20;53.30;;;;;;4747971;30;20032;-86
2021/05/04 04:14:35;;;;;;;3.10;1.13;;;14.20;53.30;;;;;;4711644;30;20158;-87
2021/05/04 04:17:01;;;;;;;1.30;1.20;;;14.10;53.30;;;;;;4731057;30;20040;-89
2021/05/04 04:19:26;;;;;;;1.15;1.10;;;14.10;53.30;;;;;;4746230;30;20043;-86
2021/05/04 04:21:52;;;;;;;1.33;1.13;;;14.10;53.40;;;;;;4729709;30;20060;-87
2021/05/04 04:24:18;;;;;;;1.30;1.20;;;14.10;53.40;;;;;;4729384;30;20041;-88
2021/05/04 04:26:44;;;;;;;1.20;1.10;;;14.10;53.40;;;;;;4735742;30;20036;-87
2021/05/04 04:29:10;;;;;;;2.03;1.20;;;14.10;53.50;;;;;;4739151;30;20040;-86
2021/05/04 04:31:41;;;;;;;1.08;1.00;;;14.00;53.50;;;;;;4755036;30;20032;-86
2021/05/04 04:34:07;;;;;;;1.20;1.10;;;14.00;53.60;;;;;;4750588;30;20570;-87
2021/05/04 04:36:33;;;;;;;1.20;1.10;;;14.00;53.60;;;;;;4721670;30;20037;-87
2021/05/04 04:38:59;;;;;;;1.20;1.10;;;14.00;53.70;;;;;;4752145;30;20553;-86
2021/05/04 04:41:25;;;;;;;1.33;1.10;;;14.00;53.70;;;;;;4736228;30;20045;-85
2021/05/04 04:43:51;;;;;;;1.30;1.20;;;13.90;53.70;;;;;;4740166;30;20499;-85
2021/05/04 04:46:16;;;;;;;1.50;1.30;;;13.90;53.70;;;;;;4736786;30;20025;-89
2021/05/04 04:48:42;;;;;;;1.25;0.95;;;13.90;53.80;;;;;;4733760;30;20056;-87
2021/05/04 04:51:08;;;;;;;1.17;1.02;;;13.90;53.80;;;;;;4721592;30;20044;-90
2021/05/04 04:53:34;;;;;;;0.95;0.95;;;13.90;53.80;;;;;;4721812;30;20495;-86
2021/05/04 04:56:00;;;;;;;1.95;1.10;;;13.90;53.90;;;;;;4738620;30;20071;-90
2021/05/04 04:58:25;;;;;;;1.23;1.13;;;13.80;53.80;;;;;;4717713;30;20127;-89
2021/05/04 05:00:52;;;;;;;1.75;1.15;;;13.90;53.90;;;;;;4735838;30;20068;-89
2021/05/04 05:03:17;;;;;;;1.17;1.08;;;13.80;53.90;;;;;;4720615;30;20040;-92
2021/05/04 05:05:43;;;;;;;1.40;1.00;;;13.80;54.00;;;;;;4721088;30;20047;-88
2021/05/04 05:08:09;;;;;;;1.20;1.10;;;13.80;54.00;;;;;;4735265;30;20036;-91
2021/05/04 05:10:35;;;;;;;1.00;1.00;;;13.80;54.00;;;;;;4735952;30;20044;-90
2021/05/04 05:13:00;;;;;;;1.05;0.90;;;13.80;54.10;;;;;;4722967;30;20045;-88
2021/05/04 05:15:26;;;;;;;1.08;1.08;;;13.80;54.10;;;;;;4736450;30;20037;-87
2021/05/04 05:17:52;;;;;;;1.40;1.10;;;13.70;54.10;;;;;;4739224;30;20115;-87
2021/05/04 05:20:18;;;;;;;1.45;1.10;;;13.70;54.20;;;;;;4721244;30;20029;-88
2021/05/04 05:22:44;;;;;;;0.95;0.95;;;13.70;54.20;;;;;;4742930;30;20041;-83
2021/05/04 05:25:11;;;;;;;1.13;1.08;;;13.70;54.20;;;;;;4720931;30;20119;-87
2021/05/04 05:27:37;;;;;;;1.33;1.00;;;13.70;54.30;;;;;;4735408;30;20478;-87
2021/05/04 05:30:08;;;;;;;1.83;1.10;;;13.70;54.30;;;;;;4720612;30;20060;-85
2021/05/04 05:32:34;;;;;;;1.00;1.00;;;13.70;54.40;;;;;;4707237;30;20040;-87
2021/05/04 05:35:00;;;;;;;1.15;1.10;;;13.60;54.30;;;;;;4720319;30;20045;-85
2021/05/04 05:37:26;;;;;;;1.40;1.10;;;13.60;54.40;;;;;;4747176;30;20040;-86
2021/05/04 05:39:52;;;;;;;1.58;1.10;;;13.60;54.40;;;;;;4730313;30;20036;-86
2021/05/04 05:42:18;;;;;;;1.27;1.15;;;13.60;54.50;;;;;;4719169;30;20036;-88
2021/05/04 05:44:44;;;;;;;1.73;1.10;;;13.60;54.50;;;;;;4720629;30;20044;-86
2021/05/04 05:47:10;;;;;;;1.13;1.02;;;13.60;54.60;;;;;;4720484;30;20048;-86
2021/05/04 05:49:37;;;;;;;1.10;1.00;;;13.60;54.60;;;;;;4733168;30;20407;-85
2021/05/04 05:52:03;;;;;;;1.10;1.00;;;13.50;54.60;;;;;;4729275;30;20040;-84
2021/05/04 05:54:30;;;;;;;1.10;1.00;;;13.50;54.70;;;;;;4751766;30;20052;-86
2021/05/04 05:56:57;;;;;;;1.25;1.05;;;13.50;54.70;;;;;;4744241;30;20044;-85
2021/05/04 05:59:22;;;;;;;1.13;1.02;;;13.50;54.80;;;;;;4705676;30;20039;-84
2021/05/04 06:01:48;;;;;;;1.42;1.30;;;13.50;54.80;;;;;;4705633;30;20041;-88
2021/05/04 06:04:15;;;;;;;1.27;1.17;;;13.50;54.80;;;;;;4714896;30;20039;-85
2021/05/04 06:06:40;;;;;;;1.67;1.20;;;13.50;54.90;;;;;;4760464;30;20036;-87
2021/05/04 06:09:06;;;;;;;2.83;1.10;;;13.50;54.90;;;;;;4740100;30;20037;-89
2021/05/04 06:11:32;;;;;;;1.83;1.10;;;13.50;55.00;;;;;;4720086;30;20036;-88
2021/05/04 06:13:58;;;;;;;0.82;0.82;;;13.50;55.00;;;;;;4742142;30;20484;-88
2021/05/04 06:16:23;;;;;;;1.17;1.00;;;13.50;55.10;;;;;;4720239;30;20036;-88
2021/05/04 06:18:49;;;;;;;1.02;1.00;;;13.50;55.10;;;;;;4705365;30;20056;-88
2021/05/04 06:21:15;;;;;;;1.13;0.98;;;13.50;55.10;;;;;;4720169;30;20055;-88
2021/05/04 06:23:41;;;;;;;1.08;0.82;;;13.50;55.20;;;;;;4733873;30;20064;-87
2021/05/04 06:26:06;;;;;;;0.80;0.80;;;13.50;55.30;;;;;;4736763;30;20085;-90
2021/05/04 06:28:33;;;;;;;1.20;1.00;;;13.50;55.30;;;;;;4748661;30;20051;-88
2021/05/04 06:30:59;;;;;;;1.13;0.90;;;13.50;55.40;;;;;;4734652;30;20044;-88
2021/05/04 06:33:25;;;;;;;0.77;0.77;;;13.50;55.40;;;;;;4734245;30;20051;-89
2021/05/04 06:35:51;;;;;;;0.88;0.80;;;13.50;55.40;;;;;;4730913;30;20041;-88
2021/05/04 06:38:18;;;;;;;0.88;0.88;;;13.50;55.50;;;;;;4719822;30;20035;-87
2021/05/04 06:40:46;;;;;;;1.40;0.80;;;13.50;55.50;;;;;;4730794;30;20048;-88
2021/05/04 06:43:12;;;;;;;0.95;0.85;;;13.50;55.60;;;;;;4719680;30;20040;-89
2021/05/04 06:45:39;;;;;;;1.13;0.95;;;13.50;55.60;;;;;;4734471;30;20036;-89
2021/05/04 06:48:05;;;;;;;1.60;1.40;;;13.50;55.70;;;;;;4724543;30;20048;-85
2021/05/04 06:50:31;;;;;;;1.33;0.93;;;13.50;55.70;;;;;;4735168;30;20047;-87
2021/05/04 06:52:57;;;;;;;1.02;0.90;;;13.50;55.70;;;;;;4760815;30;20040;-88
2021/05/04 06:55:22;;;;;;;0.82;0.82;;;13.50;55.80;;;;;;4734347;30;20075;-87
2021/05/04 06:57:50;;;;;;;1.02;0.93;;;13.50;55.80;;;;;;4719077;30;20478;-87
2021/05/04 07:00:16;;;;;;;1.65;1.05;;;13.50;55.90;;;;;;4705275;30;20036;-87
2021/05/04 07:02:42;;;;;;;1.25;0.95;;;13.50;55.90;;;;;;4719102;30;20051;-86
2021/05/04 07:05:09;;;;;;;1.45;1.00;;;13.50;55.90;;;;;;4705000;30;20100;-85
2021/05/04 07:07:35;;;;;;;1.10;0.93;;;13.50;56.00;;;;;;4748693;30;20060;-87
2021/05/04 07:10:01;;;;;;;1.33;1.00;;;13.50;56.10;;;;;;4733348;30;20072;-85
2021/05/04 07:12:27;;;;;;;1.08;1.02;;;13.50;56.10;;;;;;4725213;30;20045;-84
2021/05/04 07:14:53;;;;;;;1.73;1.20;;;13.50;56.20;;;;;;4731003;30;20041;-89
2021/05/04 07:17:18;;;;;;;1.20;1.10;;;13.50;56.20;;;;;;4708780;30;20434;-83
2021/05/04 07:19:44;;;;;;;1.02;0.80;;;13.50;56.20;;;;;;4733320;30;20064;-84
2021/05/04 07:22:11;;;;;;;1.67;1.20;;;13.50;56.30;;;;;;4721229;30;21427;-85
2021/05/04 07:24:38;;;;;;;1.55;1.05;;;13.50;56.30;;;;;;4743371;30;20071;-85
2021/05/04 07:27:06;;;;;;;2.28;1.20;;;13.50;57.00;;;;;;4736864;30;20036;-86
2021/05/04 07:29:33;;;;;;;0.98;0.80;;;13.50;56.40;;;;;;4762819;30;20025;-86
2021/05/04 07:31:59;;;;;;;1.15;0.90;;;13.60;56.50;;;;;;4731515;30;20037;-86
2021/05/04 07:34:24;;;;;;;1.10;1.00;;;13.60;56.40;;;;;;4722176;30;20048;-83
2021/05/04 07:36:50;;;;;;;1.25;1.00;;;13.60;56.50;;;;;;4736603;30;20113;-83
2021/05/04 07:39:16;;;;;;;1.00;0.90;;;13.50;56.50;;;;;;4736805;30;20051;-83
2021/05/04 07:41:42;;;;;;;1.48;0.90;;;13.60;56.50;;;;;;4737747;30;20035;-84
2021/05/04 07:44:08;;;;;;;1.15;1.00;;;13.60;56.60;;;;;;4721537;30;20045;-84
2021/05/04 07:46:34;;;;;;;0.90;0.90;;;13.60;56.50;;;;;;4736390;30;20041;-84
2021/05/04 07:49:00;;;;;;;1.30;1.02;;;13.60;56.60;;;;;;4721872;30;20052;-84
2021/05/04 07:51:26;;;;;;;1.00;0.90;;;13.60;57.20;;;;;;4734197;30;20059;-84
2021/05/04 07:53:52;;;;;;;1.00;0.90;;;13.60;56.60;;;;;;4731924;30;20040;-84
2021/05/04 07:56:18;;;;;;;0.85;0.80;;;13.60;56.60;;;;;;4723543;30;20060;-85
2021/05/04 07:58:44;;;;;;;1.58;1.10;;;13.70;56.70;;;;;;4753904;30;20044;-85
2021/05/04 08:01:10;;;;;;;1.45;1.33;;;13.70;56.70;;;;;;4750858;30;20434;-84
2021/05/04 08:03:36;;;;;;;0.98;0.90;;;13.70;56.70;;;;;;4733601;30;20067;-85
2021/05/04 08:06:02;;;;;;;1.42;0.90;;;13.70;56.80;;;;;;4736268;30;20036;-85
2021/05/04 08:08:27;;;;;;;1.73;0.95;;;13.70;56.80;;;;;;4736353;30;20487;-84
2021/05/04 08:10:53;;;;;;;0.93;0.80;;;13.80;56.80;;;;;;4736199;30;20453;-83
2021/05/04 08:13:20;;;;;;;0.77;0.70;;;13.70;56.80;;;;;;4736042;30;20048;-84
2021/05/04 08:15:48;;;;;;;1.25;1.00;;;13.80;56.80;;;;;;4736227;30;20033;-84
2021/05/04 08:18:15;;;;;;;1.42;1.00;;;13.80;56.80;;;;;;4721550;30;20040;-84
2021/05/04 08:20:51;;;;;;;0.90;0.90;;;13.80;56.90;;;;;;4735364;30;20044;-85
2021/05/04 08:23:17;;;;;;;1.58;1.05;;;13.80;56.80;;;;;;4750921;30;20036;-85
2021/05/04 08:25:43;;;;;;;1.23;1.00;;;13.80;56.80;;;;;;4721394;30;20090;-84
2021/05/04 08:28:09;;;;;;;2.35;1.10;;;13.80;56.80;;;;;;4744378;30;20063;-84
2021/05/04 08:30:36;;;;;;;1.38;1.00;;;13.80;56.80;;;;;;4740775;30;20527;-82
2021/05/04 08:33:03;;;;;;;2.25;1.00;;;13.80;56.80;;;;;;4745720;30;20058;-84
2021/05/04 08:35:29;;;;;;;0.73;0.70;;;13.90;56.90;;;;;;4730716;30;20549;-84
2021/05/04 08:37:56;;;;;;;1.15;0.98;;;13.90;56.90;;;;;;4733852;30;20127;-83
2021/05/04 08:40:22;;;;;;;1.30;0.90;;;13.90;57.00;;;;;;4727176;30;20497;-83
2021/05/04 08:42:48;;;;;;;1.17;1.00;;;13.90;57.00;;;;;;4736259;30;20037;-83
2021/05/04 08:45:15;;;;;;;1.80;1.10;;;13.90;57.00;;;;;;4745221;30;20055;-83
2021/05/04 08:47:47;;;;;;;1.42;1.00;;;13.90;57.10;;;;;;4736784;30;20051;-84
2021/05/04 08:50:18;;;;;;;1.55;1.00;;;13.90;57.10;;;;;;4729114;30;20060;-83
2021/05/04 08:52:44;;;;;;;2.33;1.15;;;13.90;57.10;;;;;;4749779;30;20147;-83
2021/05/04 08:55:11;;;;;;;2.67;1.30;;;14.00;57.10;;;;;;4734891;30;20124;-83
2021/05/04 08:57:38;;;;;;;1.33;1.00;;;14.00;57.10;;;;;;4708284;30;20403;-83
2021/05/04 09:00:07;;;;;;;2.67;1.17;;;14.00;57.10;;;;;;4734819;30;20469;-84
2021/05/04 09:02:54;;;;;;;2.53;1.40;;;14.00;57.10;;;;;;4734874;30;20049;-82
2021/05/04 09:05:21;;;;;;;1.33;1.00;;;14.10;57.20;;;;;;4724752;30;20046;-83
2021/05/04 09:07:47;;;;;;;1.95;1.08;;;14.10;57.10;;;;;;4706009;30;20391;-84
2021/05/04 09:21:14;;;;;;;2.58;1.27;;;14.10;57.20;;;;;;4749203;30;20508;-83
2021/05/04 09:23:42;;;;;;;2.30;1.35;;;14.20;57.20;;;;;;4749189;30;20443;-82
2021/05/04 09:26:19;;;;;;;2.08;1.42;;;14.20;57.20;;;;;;4734286;30;20021;-84
2021/05/04 09:28:53;;;;;;;2.78;1.05;;;14.20;57.40;;;;;;4719846;30;20041;-83
2021/05/04 09:31:23;;;;;;;1.33;1.23;;;14.20;57.40;;;;;;4727043;30;20475;-83
2021/05/04 09:33:49;;;;;;;1.92;1.20;;;14.30;57.40;;;;;;4753638;30;20310;-83
2021/05/04 09:36:42;;;;;;;3.55;1.20;;;14.30;57.40;;;;;;4720141;30;20029;-83
2021/05/04 09:39:11;;;;;;;2.72;1.00;;;14.30;57.60;;;;;;4738109;30;20039;-84
2021/05/04 09:41:37;;;;;;;2.00;1.10;;;14.30;57.40;;;;;;4720884;30;20056;-84
2021/05/04 09:44:04;;;;;;;3.17;1.35;;;14.30;57.50;;;;;;4737036;30;20501;-84
2021/05/04 09:46:49;;;;;;;1.83;1.05;;;14.40;57.50;;;;;;4745531;30;20032;-84
2021/05/04 09:49:30;;;;;;;;;;;14.40;57.60;;;;;;4733969;30;20068;-84
2021/05/04 09:55:11;;;;;;;1.00;0.88;;;14.40;57.40;;;;;;4743497;30;20475;-85
2021/05/04 09:57:45;;;;;;;1.05;0.82;;;14.50;57.50;;;;;;4741643;30;20071;-85
2021/05/04 10:00:15;;;;;;;1.85;1.13;;;14.50;57.50;;;;;;4720408;30;20071;-86
2021/05/04 10:02:42;;;;;;;1.98;0.90;;;14.60;57.50;;;;;;4734532;30;20048;-85
2021/05/04 10:05:12;;;;;;;3.28;1.30;;;14.60;57.50;;;;;;4748896;30;20368;-86
2021/05/04 10:07:39;;;;;;;1.33;1.23;;;14.60;57.50;;;;;;4720731;30;20121;-85
2021/05/04 10:10:07;;;;;;;2.10;1.08;;;14.60;57.50;;;;;;4719646;30;20127;-85
2021/05/04 10:12:35;;;;;;;2.17;1.27;;;14.70;57.60;;;;;;4734332;30;20033;-85
2021/05/04 10:15:05;;;;;;;2.20;1.00;;;14.70;57.70;;;;;;4716306;30;20037;-86
2021/05/04 10:17:33;;;;;;;1.77;1.08;;;14.70;58.40;;;;;;4725859;30;20041;-87
2021/05/04 10:20:03;;;;;;;1.98;0.98;;;14.80;57.70;;;;;;4720062;30;20174;-85
2021/05/04 10:22:29;;;;;;;2.03;1.05;;;14.80;57.80;;;;;;4734270;30;20029;-85
2021/05/04 10:24:56;;;;;;;2.20;1.15;;;14.80;57.80;;;;;;4734393;30;20075;-84
2021/05/04 10:27:22;;;;;;;1.67;1.05;;;14.80;57.80;;;;;;4736885;30;20093;-86
2021/05/04 10:29:52;;;;;;;2.13;1.00;;;14.80;57.90;;;;;;4711440;30;20036;-92
2021/05/04 10:32:50;;;;;;;2.10;1.10;;;14.90;57.90;;;;;;4731520;30;20048;-87
2021/05/04 10:35:28;;;;;;;1.77;0.93;;;14.90;58.10;;;;;;4737324;30;20040;-80
2021/05/04 10:37:59;;;;;;;2.05;1.05;;;14.90;58.00;;;;;;4722508;30;20033;-81
2021/05/04 10:40:30;;;;;;;1.40;1.05;;;14.90;57.80;;;;;;4719923;30;20040;-83
2021/05/04 10:42:56;;;;;;;2.08;1.13;;;14.90;58.40;;;;;;4723560;30;20094;-84
2021/05/04 10:45:37;;;;;;;1.63;1.00;;;15.00;57.80;;;;;;4719107;30;20094;-83
2021/05/04 10:48:04;;;;;;;2.08;1.00;;;15.00;57.80;;;;;;4753689;30;20084;-90
2021/05/04 10:51:02;;;;;;;2.20;1.15;;;15.00;57.60;;;;;;4745236;30;20045;-83
2021/05/04 10:54:01;;;;;;;4.20;1.10;;;15.00;57.70;;;;;;4708964;30;20119;-84
2021/05/04 10:56:39;;;;;;;2.63;1.05;;;15.00;57.60;;;;;;4747752;30;20040;-84
2021/05/04 10:59:07;;;;;;;1.63;1.00;;;15.10;57.40;;;;;;4733139;30;20033;-84
2021/05/04 11:01:35;;;;;;;2.58;1.15;;;15.10;57.40;;;;;;4732331;30;20455;-85
2021/05/04 11:04:01;;;;;;;1.13;0.75;;;15.10;57.30;;;;;;4704715;30;20045;-85
2021/05/04 11:06:27;;;;;;;2.35;0.93;;;15.10;57.20;;;;;;4733153;30;20096;-84
2021/05/04 11:08:53;;;;;;;1.83;1.00;;;15.10;57.10;;;;;;4747537;30;20041;-84
2021/05/04 11:11:22;;;;;;;1.83;1.00;;;15.20;57.10;;;;;;4733006;30;20033;-83
2021/05/04 11:13:50;;;;;;;1.40;0.90;;;15.20;57.00;;;;;;4718378;30;20043;-84
2021/05/04 11:16:46;;;;;;;1.95;0.90;;;15.20;57.60;;;;;;4733060;30;20045;-84
2021/05/04 11:19:12;;;;;;;;;;;15.20;57.00;;;;;;4722597;30;20399;-83
2021/05/04 11:21:42;;;;;;;1.85;1.48;;;15.20;56.70;;;;;;4733276;30;19911;-84
2021/05/04 11:24:13;;;;;;;0.55;0.55;;;15.20;56.60;;;;;;4733041;30;20033;-83
2021/05/04 11:26:44;;;;;;;0.85;0.70;;;15.20;56.70;;;;;;4743119;30;20139;-83
2021/05/04 11:29:10;;;;;;;1.52;0.73;;;15.20;56.70;;;;;;4734340;30;20021;-84
2021/05/04 11:31:42;;;;;;;2.85;1.00;;;15.20;56.60;;;;;;4733103;30;20037;-84
2021/05/04 11:34:37;;;;;;;1.15;0.85;;;15.20;56.60;;;;;;4730681;30;20029;-84
2021/05/04 11:37:04;;;;;;;1.35;0.80;;;15.20;56.70;;;;;;4747798;30;20459;-84
2021/05/04 11:39:30;;;;;;;1.10;0.68;;;15.30;56.50;;;;;;4730850;30;20040;-84
2021/05/04 11:42:00;;;;;;;0.80;0.70;;;15.30;56.60;;;;;;4733204;30;20040;-82
2021/05/04 11:44:30;;;;;;;0.60;0.60;;;15.30;56.50;;;;;;4745371;30;20051;-83
2021/05/04 11:47:17;;;;;;;1.13;0.88;;;15.30;56.60;;;;;;4718666;30;20044;-84
2021/05/04 11:49:44;;;;;;;2.45;0.90;;;15.30;56.60;;;;;;4737780;30;20056;-83
2021/05/04 11:52:13;;;;;;;1.25;0.82;;;15.30;56.40;;;;;;4754829;30;20670;-83
2021/05/04 11:54:39;;;;;;;1.25;0.80;;;15.30;56.40;;;;;;4733884;30;20032;-84
2021/05/04 11:57:05;;;;;;;1.27;0.80;;;15.30;56.40;;;;;;4747978;30;20398;-85
2021/05/04 11:59:31;;;;;;;1.20;0.80;;;15.40;56.40;;;;;;4718300;30;20127;-84
2021/05/04 12:02:00;;;;;;;1.13;0.70;;;15.40;56.30;;;;;;4732927;30;20132;-85
2021/05/04 12:04:51;;;;;;;1.08;0.90;;;15.40;56.30;;;;;;4718373;30;20048;-83
2021/05/04 12:07:44;;;;;;;1.42;0.80;;;15.40;56.30;;;;;;4732699;30;20032;-88
2021/05/04 12:10:16;;;;;;;0.63;0.63;;;15.40;56.20;;;;;;4722643;30;20481;-88
2021/05/04 12:12:48;;;;;;;1.27;0.70;;;15.40;56.10;;;;;;4735431;30;20185;-86
2021/05/04 12:15:17;;;;;;;2.55;0.95;;;15.40;56.00;;;;;;4735178;30;20029;-85
2021/05/04 12:17:56;;;;;;;1.25;1.10;;;15.50;56.00;;;;;;4732379;30;20032;-86
2021/05/04 12:20:23;;;;;;;1.95;1.17;;;15.50;55.90;;;;;;4738897;30;20056;-86
2021/05/04 12:22:51;;;;;;;0.80;0.80;;;15.50;55.90;;;;;;4746381;30;20054;-86
2021/05/04 12:25:21;;;;;;;1.08;0.80;;;15.50;55.80;;;;;;4736005;30;20041;-84
2021/05/04 12:27:49;;;;;;;1.35;0.70;;;15.50;55.80;;;;;;4736333;30;20439;-86
2021/05/04 12:30:23;;;;;;;2.08;0.95;;;15.50;55.70;;;;;;4721342;30;20032;-85
2021/05/04 12:32:49;;;;;;;1.00;0.80;;;15.50;55.70;;;;;;4748589;30;20119;-87
2021/05/04 12:35:26;;;;;;;1.67;0.73;;;15.50;55.90;;;;;;4748082;30;20126;-90
2021/05/04 12:38:35;;;;;;;0.73;0.73;;;15.60;55.60;;;;;;4725080;30;20037;-90
2021/05/04 12:41:13;;;;;;;1.77;0.90;;;15.60;55.70;;;;;;4761000;30;20123;-93
2021/05/04 12:43:41;;;;;;;1.40;0.75;;;15.50;55.50;;;;;;4743436;30;20475;-91
2021/05/04 12:46:14;;;;;;;1.10;0.80;;;15.50;55.50;;;;;;4748975;30;20455;-90
2021/05/04 12:48:42;;;;;;;2.20;0.88;;;15.50;55.50;;;;;;4750401;30;20049;-93
2021/05/04 12:51:21;;;;;;;1.88;0.90;;;15.60;55.50;;;;;;4724932;30;20032;-94
2021/05/04 12:53:47;;;;;;;1.02;0.93;;;15.50;55.40;;;;;;4750998;30;20041;-92
2021/05/04 12:56:18;;;;;;;1.85;0.80;;;15.60;55.30;;;;;;4731662;30;20489;-89
2021/05/04 12:58:58;;;;;;;1.88;0.77;;;15.60;55.40;;;;;;4720875;30;20391;-86
2021/05/04 13:01:53;;;;;;;0.65;0.65;;;15.60;55.30;;;;;;4747852;30;20029;-90
2021/05/04 13:04:48;;;;;;;1.13;0.70;;;15.60;55.30;;;;;;4738013;30;20116;-88
2021/05/04 13:07:39;;;;;;;1.60;1.02;;;15.60;55.20;;;;;;4736190;30;20036;-89